createdAt,value
2017-03-23T00:00:16.801Z,0
2017-03-23T00:01:30.220Z,0
2017-03-23T00:02:44.153Z,0
2017-03-23T00:03:57.546Z,0
2017-03-23T00:05:11.459Z,0
2017-03-23T00:06:24.848Z,0
2017-03-23T00:07:38.807Z,0
2017-03-23T00:08:52.757Z,0
2017-03-23T00:10:06.736Z,0
2017-03-23T00:11:20.674Z,0
2017-03-23T00:12:34.068Z,0
2017-03-23T00:13:46.896Z,0
2017-03-23T00:15:00.284Z,0
2017-03-23T00:16:13.671Z,0
2017-03-23T00:17:27.656Z,0
2017-03-23T00:18:41.022Z,0
2017-03-23T00:19:54.410Z,0
2017-03-23T00:21:08.368Z,0
2017-03-23T00:22:22.365Z,0
2017-03-23T00:23:36.341Z,0
2017-03-23T00:24:50.309Z,0
2017-03-23T00:26:03.735Z,0
2017-03-23T00:27:17.166Z,0
2017-03-23T00:28:31.131Z,0
2017-03-23T00:29:44.508Z,0
2017-03-23T00:30:57.944Z,0
2017-03-23T00:32:11.920Z,0
2017-03-23T00:33:25.858Z,0
2017-03-23T00:34:39.808Z,0
2017-03-23T00:35:53.825Z,0
2017-03-23T00:37:07.796Z,0
2017-03-23T00:38:21.201Z,0
2017-03-23T00:39:35.192Z,0
2017-03-23T00:40:48.069Z,0
2017-03-23T00:42:02.055Z,0
2017-03-23T00:43:15.512Z,0
2017-03-23T00:44:29.460Z,0
2017-03-23T00:45:42.936Z,0
2017-03-23T00:46:56.207Z,0
2017-03-23T00:48:09.510Z,0
2017-03-23T00:49:22.793Z,0
2017-03-23T00:50:35.518Z,0
2017-03-23T00:51:48.242Z,0
2017-03-23T00:53:01.523Z,0
2017-03-23T00:54:14.249Z,0
2017-03-23T00:55:27.554Z,0
2017-03-23T00:56:40.310Z,0
2017-03-23T00:57:53.051Z,0
2017-03-23T00:59:05.772Z,0
2017-03-23T01:00:19.021Z,0
2017-03-23T01:01:32.273Z,0
2017-03-23T01:02:44.999Z,0
2017-03-23T01:03:58.246Z,0
2017-03-23T01:05:10.971Z,0
2017-03-23T01:06:24.291Z,0
2017-03-23T01:07:37.550Z,0
2017-03-23T01:08:50.301Z,0
2017-03-23T01:10:03.573Z,0
2017-03-23T01:11:15.815Z,0
2017-03-23T01:12:29.070Z,0
2017-03-23T01:13:42.345Z,0
2017-03-23T01:14:55.111Z,0
2017-03-23T01:16:08.375Z,0
2017-03-23T01:17:21.597Z,0
2017-03-23T01:18:34.849Z,0
2017-03-23T01:19:48.099Z,0
2017-03-23T01:21:00.329Z,0
2017-03-23T01:22:12.552Z,0
2017-03-23T01:23:25.286Z,0
2017-03-23T01:24:38.512Z,0
2017-03-23T01:25:51.288Z,0
2017-03-23T01:27:04.549Z,0
2017-03-23T01:28:17.821Z,0
2017-03-23T01:29:31.052Z,0
2017-03-23T01:30:44.322Z,0
2017-03-23T01:31:57.596Z,0
2017-03-23T01:33:10.353Z,0
2017-03-23T01:34:23.596Z,0
2017-03-23T01:35:36.329Z,0
2017-03-23T01:36:49.073Z,0
2017-03-23T01:38:02.327Z,0
2017-03-23T01:39:15.077Z,0
2017-03-23T01:40:27.829Z,0
2017-03-23T01:41:40.567Z,0
2017-03-23T01:42:53.849Z,0
2017-03-23T01:44:06.087Z,0
2017-03-23T01:45:19.369Z,0
2017-03-23T01:46:32.654Z,0
2017-03-23T01:47:45.394Z,0
2017-03-23T01:48:58.671Z,0
2017-03-23T01:50:11.402Z,0
2017-03-23T01:51:24.690Z,0
2017-03-23T01:52:38.041Z,0
2017-03-23T01:53:50.770Z,0
2017-03-23T01:55:02.992Z,0
2017-03-23T01:56:15.215Z,0
2017-03-23T01:57:28.512Z,0
2017-03-23T01:58:40.739Z,0
2017-03-23T01:59:53.982Z,0
2017-03-23T02:01:06.214Z,0
2017-03-23T02:02:19.513Z,0
2017-03-23T02:03:32.241Z,0
2017-03-23T02:04:45.006Z,0
2017-03-23T02:05:57.229Z,0
2017-03-23T02:07:10.480Z,0
2017-03-23T02:08:23.701Z,0
2017-03-23T02:09:36.452Z,0
2017-03-23T02:10:49.830Z,0
2017-03-23T02:12:02.611Z,0
2017-03-23T02:13:15.341Z,0
2017-03-23T02:14:28.589Z,0
2017-03-23T02:15:40.862Z,0
2017-03-23T02:16:54.139Z,0
2017-03-23T02:18:07.388Z,0
2017-03-23T02:19:20.132Z,0
2017-03-23T02:20:33.373Z,0
2017-03-23T02:21:46.638Z,0
2017-03-23T02:22:59.900Z,0
2017-03-23T02:24:13.102Z,0
2017-03-23T02:25:26.346Z,0
2017-03-23T02:26:39.104Z,0
2017-03-23T02:27:51.818Z,0
2017-03-23T02:29:05.078Z,0
2017-03-23T02:30:17.799Z,0
2017-03-23T02:31:31.084Z,0
2017-03-23T02:32:44.376Z,0
2017-03-23T02:33:57.620Z,0
2017-03-23T02:35:10.357Z,0
2017-03-23T02:36:23.090Z,0
2017-03-23T02:37:36.320Z,0
2017-03-23T02:38:49.061Z,0
2017-03-23T02:40:02.339Z,0
2017-03-23T02:41:15.571Z,0
2017-03-23T02:42:28.806Z,0
2017-03-23T02:43:42.052Z,0
2017-03-23T02:44:55.305Z,0
2017-03-23T02:46:08.626Z,0
2017-03-23T02:47:21.351Z,0
2017-03-23T02:48:33.611Z,0
2017-03-23T02:49:46.885Z,0
2017-03-23T02:50:59.072Z,0
2017-03-23T02:52:11.808Z,0
2017-03-23T02:53:25.055Z,0
2017-03-23T02:54:38.312Z,0
2017-03-23T02:55:51.103Z,0
2017-03-23T02:57:03.310Z,0
2017-03-23T02:58:16.068Z,0
2017-03-23T02:59:28.771Z,0
2017-03-23T03:00:41.482Z,0
2017-03-23T03:01:53.726Z,0
2017-03-23T03:03:07.171Z,0
2017-03-23T03:04:20.430Z,0
2017-03-23T03:05:33.171Z,0
2017-03-23T03:06:45.902Z,0
2017-03-23T03:07:58.197Z,0
2017-03-23T03:09:10.929Z,0
2017-03-23T03:10:24.154Z,0
2017-03-23T03:11:37.451Z,0
2017-03-23T03:12:50.218Z,0
2017-03-23T03:14:02.953Z,0
2017-03-23T03:15:15.183Z,0
2017-03-23T03:16:27.909Z,0
2017-03-23T03:17:40.650Z,0
2017-03-23T03:18:53.896Z,0
2017-03-23T03:20:06.112Z,0
2017-03-23T03:21:19.359Z,0
2017-03-23T03:22:32.733Z,0
2017-03-23T03:23:45.547Z,0
2017-03-23T03:24:58.773Z,0
2017-03-23T03:26:11.574Z,0
2017-03-23T03:27:24.297Z,0
2017-03-23T03:28:37.531Z,0
2017-03-23T03:29:50.304Z,0
2017-03-23T03:31:03.029Z,0
2017-03-23T03:32:16.294Z,0
2017-03-23T03:33:29.552Z,0
2017-03-23T03:34:42.286Z,0
2017-03-23T03:35:55.008Z,0
2017-03-23T03:37:08.241Z,0
2017-03-23T03:38:21.512Z,0
2017-03-23T03:39:34.247Z,0
2017-03-23T03:40:47.530Z,0
2017-03-23T03:42:00.287Z,0
2017-03-23T03:43:13.541Z,0
2017-03-23T03:44:26.761Z,0
2017-03-23T03:45:39.487Z,0
2017-03-23T03:46:52.758Z,0
2017-03-23T03:48:06.024Z,0
2017-03-23T03:49:18.761Z,0
2017-03-23T03:50:31.524Z,0
2017-03-23T03:51:44.263Z,0
2017-03-23T03:52:56.463Z,0
2017-03-23T03:54:09.197Z,0
2017-03-23T03:55:22.427Z,0
2017-03-23T03:56:35.164Z,0
2017-03-23T03:57:48.387Z,0
2017-03-23T03:59:00.604Z,0
2017-03-23T04:00:13.860Z,0
2017-03-23T04:01:27.120Z,0
2017-03-23T04:02:40.395Z,0
2017-03-23T04:03:53.094Z,0
2017-03-23T04:05:06.326Z,0
2017-03-23T04:06:19.612Z,0
2017-03-23T04:07:32.861Z,0
2017-03-23T04:08:45.621Z,0
2017-03-23T04:09:58.852Z,0
2017-03-23T04:11:12.120Z,0
2017-03-23T04:12:25.393Z,0
2017-03-23T04:13:37.606Z,0
2017-03-23T04:14:49.851Z,0
2017-03-23T04:16:03.144Z,0
2017-03-23T04:17:15.875Z,0
2017-03-23T04:18:28.620Z,0
2017-03-23T04:19:41.351Z,0
2017-03-23T04:20:53.050Z,0
2017-03-23T04:22:06.301Z,0
2017-03-23T04:26:06.278Z,0
2017-03-23T04:27:19.499Z,0
2017-03-23T04:28:32.732Z,0
2017-03-23T04:29:44.941Z,0
2017-03-23T04:30:57.662Z,0
2017-03-23T04:32:09.880Z,0
2017-03-23T04:33:22.611Z,0
2017-03-23T04:34:34.844Z,0
2017-03-23T04:35:47.549Z,0
2017-03-23T04:36:59.785Z,0
2017-03-23T04:38:12.560Z,0
2017-03-23T04:39:25.880Z,0
2017-03-23T04:40:39.111Z,0
2017-03-23T04:41:51.844Z,0
2017-03-23T04:43:04.562Z,0
2017-03-23T04:44:17.824Z,0
2017-03-23T04:45:30.581Z,0
2017-03-23T04:46:42.825Z,0
2017-03-23T04:47:56.097Z,0
2017-03-23T04:49:09.346Z,0
2017-03-23T04:50:22.593Z,0
2017-03-23T04:51:35.836Z,0
2017-03-23T04:52:48.551Z,0
2017-03-23T04:54:01.790Z,0
2017-03-23T04:55:14.028Z,0
2017-03-23T04:56:26.774Z,0
2017-03-23T04:57:40.035Z,0
2017-03-23T04:58:53.265Z,0
2017-03-23T05:00:06.558Z,0
2017-03-23T05:01:19.276Z,0
2017-03-23T05:02:32.099Z,0
2017-03-23T05:03:44.856Z,0
2017-03-23T05:04:58.115Z,0
2017-03-23T05:06:11.346Z,0
2017-03-23T05:07:24.567Z,0
2017-03-23T05:08:37.805Z,0
2017-03-23T05:09:50.567Z,0
2017-03-23T05:11:03.812Z,0
2017-03-23T05:12:17.099Z,0
2017-03-23T05:13:29.853Z,0
2017-03-23T05:14:42.649Z,0
2017-03-23T05:15:55.920Z,0
2017-03-23T05:17:09.143Z,0
2017-03-23T05:18:22.400Z,0
2017-03-23T05:19:35.145Z,0
2017-03-23T05:20:47.884Z,0
2017-03-23T05:22:00.093Z,0
2017-03-23T05:23:13.325Z,0
2017-03-23T05:24:26.581Z,0
2017-03-23T05:25:39.336Z,0
2017-03-23T05:26:52.086Z,0
2017-03-23T05:28:05.390Z,0
2017-03-23T05:29:18.654Z,0
2017-03-23T05:30:31.379Z,0
2017-03-23T05:31:44.630Z,0
2017-03-23T05:32:56.825Z,0
2017-03-23T05:34:10.092Z,0
2017-03-23T05:35:23.411Z,0
2017-03-23T05:36:36.679Z,0
2017-03-23T05:37:49.916Z,0
2017-03-23T05:39:02.678Z,0
2017-03-23T05:40:15.416Z,0
2017-03-23T05:41:28.144Z,0
2017-03-23T05:42:41.366Z,0
2017-03-23T05:43:54.595Z,0
2017-03-23T05:45:07.350Z,0
2017-03-23T05:46:20.053Z,0
2017-03-23T05:47:33.313Z,0
2017-03-23T05:48:46.598Z,0
2017-03-23T05:49:59.859Z,0
2017-03-23T05:51:12.085Z,0
2017-03-23T05:52:25.361Z,0
2017-03-23T05:53:38.605Z,0
2017-03-23T05:54:51.882Z,0
2017-03-23T05:56:04.639Z,0
2017-03-23T05:57:17.902Z,0
2017-03-23T05:58:31.198Z,0
2017-03-23T05:59:44.465Z,0
2017-03-23T06:00:57.225Z,0
2017-03-23T06:02:10.476Z,0
2017-03-23T06:03:23.209Z,0
2017-03-23T06:04:35.969Z,0
2017-03-23T06:05:48.193Z,0
2017-03-23T06:07:01.451Z,0
2017-03-23T06:08:14.761Z,0
2017-03-23T06:09:27.487Z,0
2017-03-23T06:10:40.211Z,0
2017-03-23T06:11:53.448Z,0
2017-03-23T06:13:06.679Z,0
2017-03-23T06:14:19.938Z,0
2017-03-23T06:15:33.201Z,0
2017-03-23T06:16:46.477Z,0
2017-03-23T06:17:59.241Z,0
2017-03-23T06:19:11.990Z,0
2017-03-23T06:20:25.246Z,0
2017-03-23T06:21:38.242Z,0
2017-03-23T06:22:51.465Z,0
2017-03-23T06:24:04.243Z,0
2017-03-23T06:25:17.480Z,0
2017-03-23T06:26:29.683Z,0
2017-03-23T06:27:41.934Z,0
2017-03-23T06:28:55.166Z,0
2017-03-23T06:30:07.928Z,0
2017-03-23T06:31:21.174Z,0
2017-03-23T06:32:33.888Z,0
2017-03-23T06:33:47.145Z,0
2017-03-23T06:34:59.871Z,0
2017-03-23T06:36:12.098Z,0
2017-03-23T06:37:25.331Z,0
2017-03-23T06:38:38.596Z,0
2017-03-23T06:39:51.875Z,0
2017-03-23T06:41:04.584Z,0
2017-03-23T06:42:17.881Z,0
2017-03-23T06:43:31.138Z,0
2017-03-23T06:44:43.864Z,0
2017-03-23T06:45:56.103Z,0
2017-03-23T06:47:09.350Z,0
2017-03-23T06:48:22.595Z,0
2017-03-23T06:49:34.812Z,0
2017-03-23T06:50:48.070Z,0
2017-03-23T06:52:01.310Z,0
2017-03-23T06:53:14.581Z,0
2017-03-23T06:54:27.844Z,0
2017-03-23T06:55:40.604Z,0
2017-03-23T06:56:53.351Z,0
2017-03-23T06:58:06.076Z,0
2017-03-23T06:59:19.415Z,0
2017-03-23T07:00:32.652Z,0
2017-03-23T07:01:45.930Z,0
2017-03-23T07:02:58.653Z,0
2017-03-23T07:04:11.362Z,0
2017-03-23T07:05:24.597Z,0
2017-03-23T07:06:37.361Z,0
2017-03-23T07:07:49.573Z,0
2017-03-23T07:09:02.851Z,0
2017-03-23T07:10:15.571Z,0
2017-03-23T07:11:28.302Z,0
2017-03-23T07:12:41.555Z,0
2017-03-23T07:13:54.300Z,0
2017-03-23T07:15:07.555Z,0
2017-03-23T07:16:20.783Z,0
2017-03-23T07:17:34.025Z,0
2017-03-23T07:18:47.305Z,0
2017-03-23T07:20:00.001Z,0
2017-03-23T07:21:12.734Z,0
2017-03-23T07:22:25.481Z,0
2017-03-23T07:23:38.750Z,0
2017-03-23T07:24:51.998Z,0
2017-03-23T07:26:05.246Z,0
2017-03-23T07:27:17.476Z,0
2017-03-23T07:28:30.706Z,0
2017-03-23T07:29:43.963Z,0
2017-03-23T07:30:57.233Z,0
2017-03-23T07:32:10.490Z,0
2017-03-23T07:33:23.214Z,0
2017-03-23T07:34:35.962Z,0
2017-03-23T07:35:48.183Z,0
2017-03-23T07:37:00.908Z,0
2017-03-23T07:38:14.144Z,0
2017-03-23T07:39:26.871Z,0
2017-03-23T07:40:39.597Z,0
2017-03-23T07:41:52.832Z,0
2017-03-23T07:43:05.606Z,0
2017-03-23T07:44:19.062Z,0
2017-03-23T07:45:32.383Z,0
2017-03-23T07:46:45.644Z,0
2017-03-23T07:47:58.899Z,0
2017-03-23T07:49:11.647Z,0
2017-03-23T07:50:24.404Z,0
2017-03-23T07:51:37.646Z,0
2017-03-23T07:52:50.386Z,0
2017-03-23T07:54:03.145Z,0
2017-03-23T07:55:16.413Z,0
2017-03-23T07:56:29.679Z,0
2017-03-23T07:57:42.428Z,0
2017-03-23T07:58:55.667Z,0
2017-03-23T08:00:08.932Z,0
2017-03-23T08:01:22.214Z,0
2017-03-23T08:02:35.468Z,0
2017-03-23T08:03:48.171Z,0
2017-03-23T08:05:01.409Z,0
2017-03-23T08:06:14.674Z,0
2017-03-23T08:07:27.375Z,0
2017-03-23T08:08:40.643Z,0
2017-03-23T08:09:53.366Z,0
2017-03-23T08:11:06.606Z,0
2017-03-23T08:12:19.333Z,0
2017-03-23T08:13:32.633Z,0
2017-03-23T08:14:45.877Z,0
2017-03-23T08:15:58.657Z,0
2017-03-23T08:17:11.890Z,0
2017-03-23T08:18:24.615Z,0
2017-03-23T08:19:37.357Z,0
2017-03-23T08:20:50.123Z,0
2017-03-23T08:22:03.409Z,0
2017-03-23T08:23:16.115Z,0
2017-03-23T08:24:29.362Z,0
2017-03-23T08:25:42.654Z,0
2017-03-23T08:26:55.941Z,0
2017-03-23T08:28:08.651Z,0
2017-03-23T08:29:21.422Z,0
2017-03-23T08:30:33.643Z,0
2017-03-23T08:31:46.386Z,0
2017-03-23T08:32:59.649Z,0
2017-03-23T08:34:12.909Z,0
2017-03-23T08:35:26.151Z,0
2017-03-23T08:36:38.892Z,0
2017-03-23T08:37:52.142Z,0
2017-03-23T08:39:04.836Z,0
2017-03-23T08:40:17.561Z,0
2017-03-23T08:41:30.794Z,0
2017-03-23T08:42:43.008Z,0
2017-03-23T08:43:56.263Z,0
2017-03-23T08:45:08.982Z,0
2017-03-23T08:46:22.247Z,4
2017-03-23T08:47:35.549Z,0
2017-03-23T08:48:48.840Z,4
2017-03-23T08:50:01.078Z,4
2017-03-23T08:51:14.313Z,8
2017-03-23T08:52:27.047Z,8
2017-03-23T08:53:40.302Z,12
2017-03-23T08:54:53.606Z,16
2017-03-23T08:56:05.837Z,24
2017-03-23T08:57:18.567Z,32
2017-03-23T08:58:31.313Z,48
2017-03-23T08:59:44.015Z,60
2017-03-23T09:00:56.749Z,80
2017-03-23T09:02:09.999Z,108
2017-03-23T09:03:22.215Z,148
2017-03-23T09:04:34.937Z,196
2017-03-23T09:05:48.184Z,248
2017-03-23T09:07:01.411Z,284
2017-03-23T09:08:15.789Z,332
2017-03-23T09:09:28.484Z,380
2017-03-23T09:10:41.205Z,436
2017-03-23T09:11:54.503Z,492
2017-03-23T09:13:07.218Z,560
2017-03-23T09:14:20.467Z,640
2017-03-23T09:15:33.722Z,740
2017-03-23T09:16:45.927Z,848
2017-03-23T09:17:59.197Z,948
2017-03-23T09:19:11.933Z,1064
2017-03-23T09:20:24.693Z,1184
2017-03-23T09:21:37.947Z,1316
2017-03-23T09:22:50.645Z,1464
2017-03-23T09:24:03.902Z,1620
2017-03-23T09:25:16.651Z,1752
2017-03-23T09:26:29.906Z,1944
2017-03-23T09:27:42.597Z,2052
2017-03-23T09:28:55.836Z,2320
2017-03-23T09:30:09.089Z,2736
2017-03-23T09:31:21.796Z,2856
2017-03-23T09:32:34.497Z,2868
2017-03-23T09:33:47.719Z,3100
2017-03-23T09:35:00.438Z,3368
2017-03-23T09:36:12.641Z,3972
2017-03-23T09:37:25.364Z,3876
2017-03-23T09:38:38.605Z,4852
2017-03-23T09:39:51.866Z,5876
2017-03-23T09:41:04.611Z,5728
2017-03-23T09:42:17.860Z,5828
2017-03-23T09:43:31.141Z,5316
2017-03-23T09:44:43.853Z,5528
2017-03-23T09:45:56.566Z,5716
2017-03-23T09:47:09.314Z,5768
2017-03-23T09:48:22.078Z,5496
2017-03-23T09:49:35.330Z,5572
2017-03-23T09:50:48.560Z,6608
2017-03-23T09:52:01.324Z,8520
2017-03-23T09:53:14.624Z,8796
2017-03-23T09:54:27.872Z,9484
2017-03-23T09:55:41.149Z,9644
2017-03-23T09:56:53.929Z,11300
2017-03-23T09:58:07.159Z,10252
2017-03-23T09:59:19.892Z,7868
2017-03-23T10:00:33.124Z,9928
2017-03-23T10:01:46.381Z,11356
2017-03-23T10:02:59.139Z,7824
2017-03-23T10:04:11.870Z,10508
2017-03-23T10:05:25.119Z,12912
2017-03-23T10:06:38.427Z,11064
2017-03-23T10:07:51.192Z,14156
2017-03-23T10:09:04.577Z,15632
2017-03-23T10:10:17.317Z,12464
2017-03-23T10:11:30.600Z,12300
2017-03-23T10:12:43.861Z,13212
2017-03-23T10:13:57.140Z,15408
2017-03-23T10:15:10.468Z,17376
2017-03-23T10:16:23.890Z,15952
2017-03-23T10:17:36.116Z,16432
2017-03-23T10:18:49.361Z,15324
2017-03-23T10:20:02.579Z,15048
2017-03-23T10:21:15.316Z,17248
2017-03-23T10:22:28.080Z,19488
2017-03-23T10:23:41.341Z,20640
2017-03-23T10:24:54.575Z,40096
2017-03-23T10:26:07.813Z,36992
2017-03-23T10:27:21.089Z,21408
2017-03-23T10:28:33.813Z,16060
2017-03-23T10:29:46.756Z,15824
2017-03-23T10:31:00.015Z,14464
2017-03-23T10:32:13.245Z,18144
2017-03-23T10:33:25.463Z,13820
2017-03-23T10:34:38.685Z,13412
2017-03-23T10:35:50.867Z,17696
2017-03-23T10:37:04.120Z,31488
2017-03-23T10:38:17.383Z,37504
2017-03-23T10:39:30.184Z,21664
2017-03-23T10:40:43.460Z,47840
2017-03-23T10:41:55.152Z,41184
2017-03-23T10:43:08.398Z,46720
2017-03-23T10:44:20.119Z,38656
2017-03-23T10:45:32.325Z,31392
2017-03-23T10:46:45.602Z,37376
2017-03-23T10:47:58.835Z,37920
2017-03-23T10:49:11.835Z,50176
2017-03-23T10:50:25.062Z,44480
2017-03-23T10:51:38.354Z,29696
2017-03-23T10:52:51.075Z,52320
2017-03-23T10:54:03.802Z,52512
2017-03-23T10:55:16.566Z,61760
2017-03-23T10:56:29.829Z,61024
2017-03-23T10:57:42.063Z,59136
2017-03-23T10:58:54.807Z,64896
2017-03-23T11:00:07.016Z,41504
2017-03-23T11:01:19.770Z,38976
2017-03-23T11:02:33.047Z,42528
2017-03-23T11:03:46.290Z,57120
2017-03-23T11:04:59.118Z,27968
2017-03-23T11:06:12.567Z,30720
2017-03-23T11:07:25.327Z,67328
2017-03-23T11:08:38.073Z,55904
2017-03-23T11:09:50.795Z,30496
2017-03-23T11:11:04.031Z,21920
2017-03-23T11:12:16.747Z,43424
2017-03-23T11:13:29.030Z,58560
2017-03-23T11:14:41.757Z,35008
2017-03-23T11:15:53.990Z,40064
2017-03-23T11:17:07.280Z,44352
2017-03-23T11:18:20.007Z,70432
2017-03-23T11:19:32.756Z,66208
2017-03-23T11:20:46.006Z,66656
2017-03-23T11:21:59.253Z,62848
2017-03-23T11:23:12.025Z,65280
2017-03-23T11:24:24.792Z,76032
2017-03-23T11:25:37.537Z,72832
2017-03-23T11:26:50.326Z,69440
2017-03-23T11:28:03.584Z,64672
2017-03-23T11:29:16.329Z,35616
2017-03-23T11:30:29.602Z,63872
2017-03-23T11:31:41.824Z,68768
2017-03-23T11:32:55.019Z,73248
2017-03-23T11:34:07.972Z,74528
2017-03-23T11:35:21.241Z,37472
2017-03-23T11:36:34.487Z,66656
2017-03-23T11:37:46.713Z,74816
2017-03-23T11:38:59.433Z,72192
2017-03-23T11:40:12.686Z,75360
2017-03-23T11:41:25.942Z,74848
2017-03-23T11:42:38.184Z,74176
2017-03-23T11:43:51.425Z,70048
2017-03-23T11:45:04.731Z,72288
2017-03-23T11:46:17.478Z,72416
2017-03-23T11:47:30.756Z,68800
2017-03-23T11:48:44.049Z,39936
2017-03-23T11:49:57.324Z,39296
2017-03-23T11:51:10.067Z,66368
2017-03-23T11:52:23.310Z,54336
2017-03-23T11:53:36.039Z,60224
2017-03-23T11:54:48.762Z,64096
2017-03-23T11:56:01.991Z,57632
2017-03-23T11:57:13.723Z,49600
2017-03-23T11:58:26.456Z,47872
2017-03-23T11:59:39.730Z,59904
2017-03-23T12:00:52.448Z,48416
2017-03-23T12:02:05.714Z,67424
2017-03-23T12:03:18.493Z,64768
2017-03-23T12:04:31.718Z,71904
2017-03-23T12:05:44.447Z,72160
2017-03-23T12:06:57.708Z,69312
2017-03-23T12:08:10.940Z,46848
2017-03-23T12:09:23.719Z,70560
2017-03-23T12:10:36.995Z,80288
2017-03-23T12:11:50.239Z,70240
2017-03-23T12:13:03.501Z,69920
2017-03-23T12:14:16.252Z,78464
2017-03-23T12:15:29.022Z,84000
2017-03-23T12:16:41.276Z,83456
2017-03-23T12:17:54.030Z,86688
2017-03-23T12:19:06.755Z,90848
2017-03-23T12:20:20.037Z,102560
2017-03-23T12:21:33.292Z,108576
2017-03-23T12:22:45.504Z,109600
2017-03-23T12:23:58.755Z,106272
2017-03-23T12:25:12.004Z,99168
2017-03-23T12:26:25.287Z,95008
2017-03-23T12:27:37.994Z,92000
2017-03-23T12:28:51.316Z,92480
2017-03-23T12:30:04.068Z,98080
2017-03-23T12:31:17.328Z,98976
2017-03-23T12:32:30.096Z,99584
2017-03-23T12:33:42.919Z,93152
2017-03-23T12:34:56.196Z,98592
2017-03-23T12:36:09.452Z,92736
2017-03-23T12:37:22.228Z,75872
2017-03-23T12:38:35.003Z,99712
2017-03-23T12:39:47.831Z,102688
2017-03-23T12:41:01.104Z,100320
2017-03-23T12:42:13.895Z,96224
2017-03-23T12:43:27.137Z,94784
2017-03-23T12:44:40.430Z,100736
2017-03-23T12:45:53.694Z,104032
2017-03-23T12:47:06.970Z,105376
2017-03-23T12:48:20.266Z,112992
2017-03-23T12:49:33.004Z,42944
2017-03-23T12:50:45.761Z,122912
2017-03-23T12:51:58.989Z,115648
2017-03-23T12:53:12.260Z,126912
2017-03-23T12:54:25.519Z,52032
2017-03-23T12:55:38.266Z,69600
2017-03-23T12:56:51.029Z,37344
2017-03-23T12:58:03.752Z,76448
2017-03-23T12:59:16.997Z,115520
2017-03-23T13:00:29.728Z,114560
2017-03-23T13:01:43.017Z,111648
2017-03-23T13:02:56.297Z,105600
2017-03-23T13:04:09.547Z,96992
2017-03-23T13:05:22.819Z,99872
2017-03-23T13:06:36.062Z,98880
2017-03-23T13:07:49.351Z,102336
2017-03-23T13:09:02.602Z,100352
2017-03-23T13:10:15.362Z,95936
2017-03-23T13:11:28.090Z,9236
2017-03-23T13:12:41.328Z,103840
2017-03-23T13:13:54.610Z,8020
2017-03-23T13:15:07.937Z,101920
2017-03-23T13:16:21.199Z,106784
2017-03-23T13:17:33.975Z,106848
2017-03-23T13:18:46.713Z,110752
2017-03-23T13:20:00.010Z,113056
2017-03-23T13:21:12.812Z,107296
2017-03-23T13:22:26.115Z,98752
2017-03-23T13:23:38.889Z,101824
2017-03-23T13:24:51.607Z,104064
2017-03-23T13:26:04.892Z,103424
2017-03-23T13:27:17.136Z,101920
2017-03-23T13:28:30.455Z,104576
2017-03-23T13:29:43.242Z,104128
2017-03-23T13:30:56.002Z,105440
2017-03-23T13:32:08.732Z,108576
2017-03-23T13:33:22.018Z,114112
2017-03-23T13:34:34.835Z,113088
2017-03-23T13:35:47.617Z,113888
2017-03-23T13:36:59.845Z,113152
2017-03-23T13:38:13.100Z,109024
2017-03-23T13:39:26.333Z,111104
2017-03-23T13:40:38.583Z,110656
2017-03-23T13:41:51.862Z,116384
2017-03-23T13:43:05.133Z,122272
2017-03-23T13:44:18.417Z,107168
2017-03-23T13:45:31.209Z,72576
2017-03-23T13:46:44.480Z,96608
2017-03-23T13:47:57.460Z,93024
2017-03-23T13:49:11.147Z,82624
2017-03-23T13:50:24.456Z,123360
2017-03-23T13:51:37.722Z,82528
2017-03-23T13:52:50.487Z,84864
2017-03-23T13:54:03.746Z,63872
2017-03-23T13:55:17.017Z,117440
2017-03-23T13:56:29.782Z,62368
2017-03-23T13:57:43.072Z,117184
2017-03-23T13:58:56.362Z,58464
2017-03-23T14:00:09.107Z,48320
2017-03-23T14:01:21.903Z,52704
2017-03-23T14:02:34.653Z,60576
2017-03-23T14:03:46.881Z,57984
2017-03-23T14:05:00.136Z,117728
2017-03-23T14:06:11.870Z,79296
2017-03-23T14:07:24.623Z,131616
2017-03-23T14:08:36.998Z,106112
2017-03-23T14:09:50.265Z,100128
2017-03-23T14:11:03.525Z,93216
2017-03-23T14:12:16.811Z,99040
2017-03-23T14:13:29.568Z,119424
2017-03-23T14:14:41.774Z,107040
2017-03-23T14:15:54.562Z,103168
2017-03-23T14:17:07.840Z,145248
2017-03-23T14:18:21.100Z,87072
2017-03-23T14:19:34.342Z,146528
2017-03-23T14:20:47.595Z,75872
2017-03-23T14:22:00.860Z,92672
2017-03-23T14:23:13.606Z,105184
2017-03-23T14:24:26.867Z,73536
2017-03-23T14:25:39.645Z,99168
2017-03-23T14:26:52.445Z,66144
2017-03-23T14:28:05.207Z,77888
2017-03-23T14:29:17.969Z,73312
2017-03-23T14:30:31.242Z,66112
2017-03-23T14:31:44.037Z,93408
2017-03-23T14:32:56.832Z,63744
2017-03-23T14:34:10.084Z,60480
2017-03-23T14:35:22.343Z,59648
2017-03-23T14:36:35.132Z,100736
2017-03-23T14:37:47.860Z,102752
2017-03-23T14:39:00.629Z,72800
2017-03-23T14:40:13.913Z,55840
2017-03-23T14:41:27.195Z,72800
2017-03-23T14:42:39.953Z,82336
2017-03-23T14:43:53.230Z,54976
2017-03-23T14:45:06.489Z,85408
2017-03-23T14:46:19.256Z,154528
2017-03-23T14:47:32.035Z,85120
2017-03-23T14:48:44.801Z,48736
2017-03-23T14:49:58.083Z,46528
2017-03-23T14:51:10.329Z,47648
2017-03-23T14:52:23.088Z,79808
2017-03-23T14:53:35.848Z,103072
2017-03-23T14:54:49.133Z,141024
2017-03-23T14:56:02.403Z,140768
2017-03-23T14:57:15.154Z,149216
2017-03-23T14:58:28.458Z,128640
2017-03-23T14:59:40.671Z,152640
2017-03-23T15:00:53.947Z,43520
2017-03-23T15:02:07.209Z,140736
2017-03-23T15:03:19.936Z,134272
2017-03-23T15:04:33.241Z,143680
2017-03-23T15:05:46.509Z,145056
2017-03-23T15:06:59.317Z,139744
2017-03-23T15:08:11.568Z,140096
2017-03-23T15:09:24.348Z,141664
2017-03-23T15:10:37.655Z,31648
2017-03-23T15:11:50.930Z,120416
2017-03-23T15:13:04.359Z,127584
2017-03-23T15:14:17.971Z,132544
2017-03-23T15:15:30.855Z,126816
2017-03-23T15:16:44.126Z,127904
2017-03-23T15:17:57.420Z,113472
2017-03-23T15:19:10.677Z,129088
2017-03-23T15:20:22.911Z,132384
2017-03-23T15:21:36.177Z,130336
2017-03-23T15:22:49.441Z,131392
2017-03-23T15:24:02.883Z,129152
2017-03-23T15:25:16.223Z,130112
2017-03-23T15:26:28.986Z,129696
2017-03-23T15:27:42.268Z,128064
2017-03-23T15:28:55.543Z,130784
2017-03-23T15:30:08.870Z,132672
2017-03-23T15:31:22.133Z,135488
2017-03-23T15:32:34.892Z,136096
2017-03-23T15:33:48.178Z,128704
2017-03-23T15:35:00.910Z,125056
2017-03-23T15:36:13.701Z,120000
2017-03-23T15:37:25.917Z,111680
2017-03-23T15:38:39.196Z,108960
2017-03-23T15:39:52.454Z,123040
2017-03-23T15:41:05.244Z,132192
2017-03-23T15:42:17.991Z,127392
2017-03-23T15:43:31.268Z,129504
2017-03-23T15:44:44.053Z,131616
2017-03-23T15:45:57.326Z,128032
2017-03-23T15:47:10.713Z,121184
2017-03-23T15:48:23.941Z,105184
2017-03-23T15:49:36.707Z,86912
2017-03-23T15:50:49.993Z,104416
2017-03-23T15:52:02.781Z,90368
2017-03-23T15:53:16.066Z,124992
2017-03-23T15:54:29.437Z,116288
2017-03-23T15:55:42.207Z,103808
2017-03-23T15:56:54.466Z,97632
2017-03-23T15:58:07.855Z,97472
2017-03-23T15:59:20.105Z,63488
2017-03-23T16:00:32.840Z,71616
2017-03-23T16:01:46.099Z,51264
2017-03-23T16:02:59.392Z,66816
2017-03-23T16:04:11.609Z,59808
2017-03-23T16:05:24.360Z,51616
2017-03-23T16:06:36.576Z,57888
2017-03-23T16:07:49.355Z,66368
2017-03-23T16:09:02.664Z,67520
2017-03-23T16:10:15.485Z,68096
2017-03-23T16:11:28.292Z,94304
2017-03-23T16:12:41.045Z,78304
2017-03-23T16:13:54.292Z,122912
2017-03-23T16:15:07.566Z,118368
2017-03-23T16:16:20.839Z,116256
2017-03-23T16:17:33.097Z,120736
2017-03-23T16:18:46.399Z,126784
2017-03-23T16:19:59.184Z,118400
2017-03-23T16:21:11.424Z,115008
2017-03-23T16:22:24.218Z,106624
2017-03-23T16:23:37.499Z,47136
2017-03-23T16:24:50.831Z,73408
2017-03-23T16:26:04.163Z,108768
2017-03-23T16:27:17.439Z,106976
2017-03-23T16:28:30.201Z,103936
2017-03-23T16:29:42.931Z,104864
2017-03-23T16:30:56.209Z,103840
2017-03-23T16:32:08.960Z,103360
2017-03-23T16:33:22.300Z,108768
2017-03-23T16:34:35.057Z,96864
2017-03-23T16:35:47.814Z,87232
2017-03-23T16:37:01.038Z,86624
2017-03-23T16:38:13.294Z,89952
2017-03-23T16:39:26.584Z,99520
2017-03-23T16:40:39.862Z,101920
2017-03-23T16:41:52.623Z,100768
2017-03-23T16:43:05.951Z,100864
2017-03-23T16:44:18.693Z,100576
2017-03-23T16:45:32.254Z,98144
2017-03-23T16:46:45.022Z,91872
2017-03-23T16:47:58.302Z,92224
2017-03-23T16:49:11.106Z,97440